Time;durP1;ratioP1;P1;durP2;ratioP2;P2;SDS_P1;SDS_P2;PMS_P1;PMS_P2;Temp;Humidity;BMP_temperature;BMP_pressure;BME280_temperature;BME280_humidity;BME280_pressure;Samples;Min_cycle;Max_cycle;Signal;HPM_P1;HPM_P2
2024/01/05 00:00:00;;;;;;;5.93;5.43;;;;;;;-144.30;96.05;86507.88;5071183;28;20246;-57
2024/01/05 00:02:27;;;;;;;5.90;5.43;;;;;;;-144.30;95.51;86513.84;5071690;28;20672;-57
2024/01/05 00:04:54;;;;;;;6.20;5.60;;;;;;;-144.30;95.63;86509.84;5071430;28;20196;-59
2024/01/05 00:07:22;;;;;;;6.33;5.40;;;;;;;-144.30;95.42;86505.88;5070944;28;20196;-58
2024/01/05 00:09:49;;;;;;;5.70;5.20;;;;;;;-144.30;95.40;86474.06;5071264;28;20655;-57
2024/01/05 00:12:16;;;;;;;5.17;4.67;;;;;;;-144.30;95.86;86474.06;5071023;28;20206;-59
2024/01/05 00:14:43;;;;;;;5.27;4.77;;;;;;;-144.30;95.54;86491.97;5071056;28;20192;-59
2024/01/05 00:17:10;;;;;;;4.93;4.53;;;;;;;-144.30;95.54;86478.03;5071106;28;20200;-59
2024/01/05 00:19:37;;;;;;;5.40;4.90;;;;;;;-144.30;95.57;86454.19;5071035;28;20291;-58
2024/01/05 00:22:04;;;;;;;5.00;4.50;;;;;;;-144.30;95.32;86489.97;5070843;28;20283;-57
2024/01/05 00:24:32;;;;;;;8.17;5.27;;;;;;;-144.30;95.04;86482.03;5070847;28;20388;-58
2024/01/05 00:27:00;;;;;;;8.00;4.23;;;;;;;-144.30;95.25;86499.91;5070765;28;20200;-58
2024/01/05 00:29:27;;;;;;;5.60;4.63;;;;;;;-144.30;95.18;86472.06;5071046;28;20695;-57
2024/01/05 00:31:54;;;;;;;4.90;4.50;;;;;;;-144.30;95.18;86501.91;5070443;28;20668;-58
2024/01/05 00:34:20;;;;;;;4.53;4.13;;;;;;;-144.30;94.89;86482.03;5070597;28;20200;-58
2024/01/05 00:36:47;;;;;;;6.50;4.43;;;;;;;-144.30;94.79;86517.81;5070405;28;20210;-57
2024/01/05 00:39:16;;;;;;;5.90;4.93;;;;;;;-144.30;95.56;86507.88;5070356;28;20188;-59
2024/01/05 00:41:47;;;;;;;4.70;4.30;;;;;;;-144.30;95.78;86529.75;5070728;28;20261;-59
2024/01/05 00:44:14;;;;;;;4.17;3.83;;;;;;;-144.30;95.57;86533.72;5070470;28;20290;-58
2024/01/05 00:46:41;;;;;;;4.43;4.00;;;;;;;-144.30;95.86;86499.91;5070607;28;20733;-57
2024/01/05 00:49:08;;;;;;;4.47;4.07;;;;;;;-144.30;95.93;86497.94;5070312;28;20242;-58
2024/01/05 00:51:35;;;;;;;4.20;3.80;;;;;;;-144.30;95.69;86533.72;5070706;28;20196;-58
2024/01/05 00:54:02;;;;;;;3.97;3.67;;;;;;;-144.30;96.00;86507.88;5070401;28;20195;-58
2024/01/05 00:56:28;;;;;;;5.73;4.10;;;;;;;-144.30;95.61;86515.81;5070680;28;20609;-58
2024/01/05 00:58:57;;;;;;;4.20;3.90;;;;;;;-144.30;95.79;86549.63;5070425;28;20214;-60
2024/01/05 01:01:24;;;;;;;5.73;4.83;;;;;;;-144.30;95.90;86493.94;5070101;28;20227;-57
2024/01/05 01:03:50;;;;;;;5.20;4.67;;;;;;;-144.30;95.78;86382.59;5070399;28;20204;-57
2024/01/05 01:06:17;;;;;;;5.57;4.73;;;;;;;-144.30;95.56;86511.84;5069745;28;20199;-58
2024/01/05 01:08:44;;;;;;;5.40;4.87;;;;;;;-144.30;95.29;86529.75;5070160;28;20443;-58
2024/01/05 01:11:14;;;;;;;5.40;4.37;;;;;;;-144.30;95.83;86521.78;5070250;28;20200;-59
2024/01/05 01:13:42;;;;;;;3.83;3.53;;;;;;;-144.30;95.83;86559.56;5070454;28;20612;-59
2024/01/05 01:16:11;;;;;;;4.40;4.00;;;;;;;-144.30;95.98;86513.84;5070132;28;20203;-58
2024/01/05 01:18:38;;;;;;;3.93;3.63;;;;;;;-144.30;96.02;86527.75;5070079;28;20230;-59
2024/01/05 01:21:05;;;;;;;4.13;3.73;;;;;;;-144.30;96.20;86543.66;5070120;28;20218;-59
2024/01/05 01:23:32;;;;;;;5.10;3.83;;;;;;;-144.30;96.32;86557.59;5070249;28;20425;-58
2024/01/05 01:26:00;;;;;;;5.37;3.70;;;;;;;-144.30;96.00;86497.94;5069933;28;20210;-58
2024/01/05 01:28:27;;;;;;;4.20;3.87;;;;;;;-144.30;96.25;86509.84;5069939;28;20223;-58
2024/01/05 01:30:54;;;;;;;4.63;3.60;;;;;;;-144.30;96.09;86569.50;5069967;28;20218;-58
2024/01/05 01:33:23;;;;;;;5.67;3.27;;;;;;;-144.30;95.98;86458.16;5070018;28;20192;-59
2024/01/05 01:35:50;;;;;;;3.37;3.10;;;;;;;-144.30;95.83;86529.75;5069963;28;20204;-57
2024/01/05 01:38:17;;;;;;;3.13;2.93;;;;;;;-144.30;95.80;86523.78;5069885;28;20199;-59
2024/01/05 01:40:46;;;;;;;3.23;2.90;;;;;;;-144.30;95.81;86529.75;5069946;28;20228;-59
2024/01/05 01:43:19;;;;;;;4.97;3.23;;;;;;;-144.30;95.51;86529.75;5069867;28;20200;-59
2024/01/05 01:45:46;;;;;;;3.23;2.93;;;;;;;-144.30;95.87;86553.59;5069968;28;20192;-59
2024/01/05 01:48:14;;;;;;;3.93;3.17;;;;;;;-144.30;95.43;86474.06;5069671;28;20234;-59
2024/01/05 01:50:42;;;;;;;3.80;3.30;;;;;;;-144.30;95.23;86549.63;5069871;28;20206;-59
2024/01/05 01:53:10;;;;;;;3.13;2.93;;;;;;;-144.30;95.56;86501.91;5069909;28;20654;-59
2024/01/05 01:55:37;;;;;;;3.47;2.97;;;;;;;-144.30;95.11;86545.66;5069926;28;20206;-58
2024/01/05 01:58:04;;;;;;;3.43;3.03;;;;;;;-144.30;94.99;86545.66;5069763;28;20581;-58
2024/01/05 02:00:32;;;;;;;4.40;3.10;;;;;;;-144.30;94.96;86579.47;5069765;28;20243;-60
2024/01/05 02:03:00;;;;;;;3.23;2.93;;;;;;;-144.30;94.43;86509.84;5069948;28;20621;-57
2024/01/05 02:05:27;;;;;;;3.30;3.00;;;;;;;-144.30;94.57;86561.56;5069595;28;20195;-58
2024/01/05 02:07:55;;;;;;;3.00;2.77;;;;;;;-144.30;94.15;86559.56;5070053;28;20204;-58
2024/01/05 02:10:23;;;;;;;2.20;2.00;;;;;;;-144.30;94.06;86533.72;5069748;28;20283;-59
2024/01/05 02:12:50;;;;;;;2.87;2.30;;;;;;;-144.30;93.34;86507.88;5069441;28;20286;-59
2024/01/05 02:15:18;;;;;;;2.77;2.57;;;;;;;-144.30;93.17;86523.78;5069331;28;20196;-59
2024/01/05 02:17:45;;;;;;;2.67;2.40;;;;;;;-144.30;93.13;86517.81;5072420;28;20211;-58
2024/01/05 02:20:12;;;;;;;2.60;2.27;;;;;;;-144.30;92.20;86527.75;5072967;28;20261;-59
2024/01/05 02:22:41;;;;;;;3.07;2.50;;;;;;;-144.30;91.96;86507.88;5073274;28;20211;-58
2024/01/05 02:25:10;;;;;;;2.57;2.37;;;;;;;-144.30;91.96;86527.75;5073113;28;20223;-58
2024/01/05 02:27:37;;;;;;;2.50;2.30;;;;;;;-144.30;92.10;86521.78;5072879;28;20203;-58
2024/01/05 02:30:05;;;;;;;2.37;2.20;;;;;;;-144.30;91.66;86505.88;5073014;28;20242;-58
2024/01/05 02:32:31;;;;;;;2.47;2.27;;;;;;;-144.30;91.93;87108.47;5072760;28;20202;-58
2024/01/05 02:34:58;;;;;;;2.20;2.00;;;;;;;-144.30;91.60;86466.09;5057691;28;20280;-58
2024/01/05 02:37:25;;;;;;;1.77;1.67;;;;;;;-144.30;90.75;86482.03;5052700;28;20201;-58
2024/01/05 02:39:52;;;;;;;2.07;1.90;;;;;;;-144.30;89.98;86470.09;5052617;28;20660;-60
2024/01/05 02:42:20;;;;;;;2.20;1.80;;;;;;;-144.30;89.86;86501.91;5052690;28;20200;-58
2024/01/05 02:44:47;;;;;;;1.60;1.50;;;;;;;-144.30;89.15;86513.84;5053106;28;20706;-57
2024/01/05 02:47:14;;;;;;;2.23;1.77;;;;;;;-144.30;89.28;86470.09;5052769;28;20200;-58
2024/01/05 02:49:41;;;;;;;1.80;1.67;;;;;;;-144.30;88.52;86430.31;5052685;28;20226;-59
2024/01/05 02:52:08;;;;;;;1.70;1.60;;;;;;;-144.30;88.25;86503.91;5052551;28;20203;-58
2024/01/05 02:54:35;;;;;;;2.20;1.50;;;;;;;-144.30;87.79;86450.19;5052650;28;20203;-57
2024/01/05 02:57:01;;;;;;;1.53;1.43;;;;;;;-144.30;87.88;86456.16;5052401;28;20193;-59
2024/01/05 02:59:30;;;;;;;1.67;1.57;;;;;;;-144.30;88.05;86418.38;5052492;28;20196;-58
2024/01/05 03:01:57;;;;;;;2.33;2.00;;;;;;;-144.30;87.65;86462.13;5052110;28;20242;-56
2024/01/05 03:04:24;;;;;;;4.23;2.00;;;;;;;-144.30;87.31;86470.09;5052740;28;20201;-58
2024/01/05 03:06:50;;;;;;;1.60;1.50;;;;;;;-144.30;87.51;86454.19;5052378;28;20284;-58
2024/01/05 03:09:17;;;;;;;1.67;1.57;;;;;;;-144.30;86.52;86438.28;5051973;28;20227;-57
2024/01/05 03:11:44;;;;;;;1.53;1.20;;;;;;;-144.30;86.69;86434.28;5052451;28;20211;-59
2024/01/05 03:14:11;;;;;;;1.60;1.50;;;;;;;-144.30;85.74;86460.16;5052483;28;21311;-59
2024/01/05 03:16:39;;;;;;;1.40;1.30;;;;;;;-144.30;86.17;86450.19;5052042;28;20192;-58
2024/01/05 03:19:06;;;;;;;1.57;1.47;;;;;;;-144.30;85.24;86416.41;5051992;28;20688;-58
2024/01/05 03:21:33;;;;;;;1.13;1.13;;;;;;;-144.30;84.97;86450.19;5052052;28;20204;-59
2024/01/05 03:24:00;;;;;;;4.10;1.50;;;;;;;-144.30;85.01;86440.25;5051919;28;20207;-59
2024/01/05 03:26:27;;;;;;;1.27;1.27;;;;;;;-144.30;84.70;86434.28;5052170;28;20254;-58
2024/01/05 03:28:54;;;;;;;1.57;1.47;;;;;;;-144.30;84.94;86432.31;5051166;28;20231;-58
2024/01/05 03:31:22;;;;;;;1.50;1.40;;;;;;;-144.30;84.17;86422.38;5051797;28;20208;-58
2024/01/05 03:33:50;;;;;;;2.17;1.90;;;;;;;-144.30;84.33;86432.31;5051603;28;20218;-58
2024/01/05 03:36:17;;;;;;;2.07;1.50;;;;;;;-144.30;84.12;86434.28;5051746;28;20866;-58
2024/01/05 03:38:44;;;;;;;2.30;1.37;;;;;;;-144.30;83.78;86436.28;5051716;28;20657;-59
2024/01/05 03:41:13;;;;;;;1.60;1.50;;;;;;;-144.30;83.62;86364.69;5051771;28;20193;-57
2024/01/05 03:43:40;;;;;;;2.47;1.87;;;;;;;-144.30;83.71;86396.50;5051753;28;20243;-59
2024/01/05 03:46:11;;;;;;;1.70;1.57;;;;;;;-144.30;83.20;86424.34;5051913;28;20219;-59
2024/01/05 03:48:37;;;;;;;1.70;1.60;;;;;;;-144.30;83.34;86452.19;5051436;28;20197;-58
2024/01/05 03:51:06;;;;;;;1.90;1.70;;;;;;;-144.30;83.80;86436.28;5051361;28;20203;-58
2024/01/05 03:53:33;;;;;;;2.20;2.00;;;;;;;-144.30;83.61;86478.03;5051608;28;20199;-58
2024/01/05 03:56:00;;;;;;;2.00;1.90;;;;;;;-144.30;83.75;86438.28;5051653;28;20216;-59
2024/01/05 03:58:28;;;;;;;2.23;2.07;;;;;;;-144.30;83.51;86418.38;5051439;28;20197;-59
2024/01/05 04:00:55;;;;;;;1.87;1.77;;;;;;;-144.30;84.32;86360.72;5051176;28;20225;-58
2024/01/05 04:03:21;;;;;;;2.10;1.90;;;;;;;-144.30;84.46;86446.22;5052247;28;20233;-58
2024/01/05 04:05:49;;;;;;;2.80;2.00;;;;;;;-144.30;84.66;86454.19;5064991;28;20589;-57
2024/01/05 04:08:17;;;;;;;1.80;1.70;;;;;;;-144.30;84.98;86470.09;5071422;28;20218;-58
2024/01/05 04:10:44;;;;;;;2.57;2.00;;;;;;;-144.30;84.54;86438.28;5070454;28;20219;-58
2024/01/05 04:13:11;;;;;;;1.70;1.60;;;;;;;-144.30;84.77;86464.13;5070468;28;20200;-57
2024/01/05 04:15:38;;;;;;;2.27;2.10;;;;;;;-144.30;84.55;86434.28;5070483;28;20199;-58
2024/01/05 04:18:06;;;;;;;3.40;2.27;;;;;;;-144.30;84.88;85909.34;5070261;28;20286;-58
2024/01/05 04:20:33;;;;;;;4.47;1.87;;;;;;;-144.30;84.71;86446.22;5070121;28;20652;-57
2024/01/05 04:23:01;;;;;;;1.80;1.70;;;;;;;-144.30;84.86;86430.31;5070006;28;20214;-58
2024/01/05 04:25:30;;;;;;;2.47;2.17;;;;;;;-144.30;84.65;86414.41;5070003;28;20202;-58
2024/01/05 04:27:59;;;;;;;2.97;1.90;;;;;;;-144.30;84.53;86446.22;5069875;28;20195;-57
2024/01/05 04:30:26;;;;;;;1.83;1.73;;;;;;;-144.30;84.06;86458.16;5070080;28;20223;-56
2024/01/05 04:32:53;;;;;;;2.07;1.97;;;;;;;-144.30;84.38;86430.31;5069718;28;20196;-58
2024/01/05 04:35:19;;;;;;;1.93;1.73;;;;;;;-144.30;83.79;86386.56;5070037;28;20194;-58
2024/01/05 04:37:46;;;;;;;2.27;2.00;;;;;;;-144.30;83.83;86416.41;5070000;28;20188;-59
2024/01/05 04:40:14;;;;;;;2.70;1.90;;;;;;;-144.30;84.99;86446.22;5068879;28;20685;-56
2024/01/05 04:42:42;;;;;;;2.80;2.60;;;;;;;-144.30;85.10;86462.13;5070509;28;20206;-55
2024/01/05 04:45:11;;;;;;;2.70;2.50;;;;;;;-144.30;85.31;86450.19;5070385;28;20188;-56
2024/01/05 04:47:38;;;;;;;1.90;1.80;;;;;;;-144.30;84.71;86446.22;5070323;28;20253;-56
2024/01/05 04:50:06;;;;;;;3.73;1.70;;;;;;;-144.30;83.95;86428.31;5070307;28;20223;-55
2024/01/05 04:52:35;;;;;;;2.50;1.87;;;;;;;-144.30;83.44;86452.19;5070340;28;20589;-55
2024/01/05 04:55:04;;;;;;;2.90;2.40;;;;;;;-144.30;83.56;86418.38;5070190;28;20227;-57
2024/01/05 04:57:31;;;;;;;2.33;2.00;;;;;;;-144.30;84.08;86468.09;5070226;28;20207;-57
2024/01/05 04:59:59;;;;;;;2.53;2.20;;;;;;;-144.30;83.45;86426.34;5069729;28;20212;-55
2024/01/05 05:02:26;;;;;;;2.50;2.27;;;;;;;-144.30;83.46;86452.19;5070342;28;20250;-55
2024/01/05 05:04:53;;;;;;;4.07;2.23;;;;;;;-144.30;83.95;86426.34;5070304;28;20298;-56
2024/01/05 05:07:20;;;;;;;2.87;2.67;;;;;;;-144.30;83.98;86466.09;5069316;28;20441;-59
2024/01/05 05:09:47;;;;;;;2.67;2.47;;;;;;;-144.30;83.63;86476.06;5070030;28;20329;-56
2024/01/05 05:12:14;;;;;;;4.97;2.13;;;;;;;-144.30;84.11;86450.19;5069975;28;20200;-57
2024/01/05 05:14:40;;;;;;;3.07;2.20;;;;;;;-144.30;84.12;86440.25;5070045;28;20200;-55
2024/01/05 05:17:09;;;;;;;4.50;2.10;;;;;;;-144.30;84.17;86448.22;5069935;28;20196;-55
2024/01/05 05:19:36;;;;;;;2.47;2.27;;;;;;;-144.30;83.94;86480.03;5070279;28;20210;-55
2024/01/05 05:22:03;;;;;;;2.40;2.20;;;;;;;-144.30;83.38;86450.19;5070005;28;20219;-57
2024/01/05 05:24:30;;;;;;;7.40;2.50;;;;;;;-144.30;83.15;86450.19;5070056;28;20254;-58
2024/01/05 05:26:57;;;;;;;2.83;2.03;;;;;;;-144.30;83.05;86458.16;5069923;28;20634;-58
2024/01/05 05:29:24;;;;;;;2.57;2.20;;;;;;;-144.30;82.76;86438.28;5070458;28;20578;-59
2024/01/05 05:31:51;;;;;;;2.47;2.27;;;;;;;-144.30;82.55;86458.16;5070127;28;20200;-58
2024/01/05 05:34:19;;;;;;;1.90;1.80;;;;;;;-144.30;82.83;86438.28;5069792;28;20200;-57
2024/01/05 05:36:46;;;;;;;5.40;1.90;;;;;;;-144.30;82.57;86414.41;5069863;28;20664;-55
2024/01/05 05:39:13;;;;;;;3.23;2.53;;;;;;;-144.30;82.34;86442.25;5069700;28;20196;-55
2024/01/05 05:41:40;;;;;;;2.27;2.17;;;;;;;-144.30;82.95;86464.13;5065132;28;20583;-56
2024/01/05 05:44:07;;;;;;;5.03;2.70;;;;;;;-144.30;82.98;86390.53;5058369;28;20199;-59
2024/01/05 05:46:34;;;;;;;4.83;2.90;;;;;;;-144.30;82.54;86442.25;5058785;28;20200;-58
2024/01/05 05:49:01;;;;;;;3.33;2.80;;;;;;;-144.30;82.35;86434.28;5056612;28;20686;-56
2024/01/05 05:51:29;;;;;;;3.33;3.00;;;;;;;-144.30;82.36;86458.16;5070106;28;20250;-56
2024/01/05 05:53:56;;;;;;;2.70;2.50;;;;;;;-144.30;82.15;86470.09;5073203;28;20207;-56
2024/01/05 05:56:23;;;;;;;4.93;2.37;;;;;;;-144.30;81.73;86420.38;5072186;28;20650;-56
2024/01/05 05:58:50;;;;;;;3.13;2.60;;;;;;;-144.30;81.93;86428.31;5073776;28;20218;-54
2024/01/05 06:01:17;;;;;;;3.43;2.63;;;;;;;-144.30;81.68;86434.28;5073149;28;20320;-56
2024/01/05 06:03:44;;;;;;;4.90;2.80;;;;;;;-144.30;81.92;86446.22;5073487;28;20204;-55
2024/01/05 06:06:18;;;;;;;10.00;2.63;;;;;;;-144.30;81.55;86440.25;5071973;28;20635;-56
2024/01/05 06:08:47;;;;;;;2.83;2.47;;;;;;;-144.30;81.74;86456.16;5073162;28;20199;-57
2024/01/05 06:11:16;;;;;;;3.33;2.90;;;;;;;-144.30;81.40;86412.41;5073045;28;20310;-58
2024/01/05 06:13:43;;;;;;;3.20;2.90;;;;;;;-144.30;81.46;86422.38;5072946;28;20253;-55
2024/01/05 06:16:10;;;;;;;4.40;3.20;;;;;;;-144.30;81.33;86480.03;5073025;28;20202;-58
2024/01/05 06:18:37;;;;;;;3.67;3.10;;;;;;;-144.30;81.55;86434.28;5073031;28;20591;-58
2024/01/05 06:21:05;;;;;;;3.97;3.23;;;;;;;-144.30;81.61;86446.22;5072589;28;20253;-55
2024/01/05 06:23:32;;;;;;;5.50;3.73;;;;;;;-144.30;81.90;86414.41;5072831;28;20292;-58
2024/01/05 06:26:00;;;;;;;5.50;4.30;;;;;;;-144.30;81.68;86432.31;5072878;28;20195;-58
2024/01/05 06:28:27;;;;;;;5.53;4.23;;;;;;;-144.30;82.08;86464.13;5073016;28;20668;-57
2024/01/05 06:30:54;;;;;;;8.20;3.77;;;;;;;-144.30;81.03;86438.28;5072746;28;20288;-55
2024/01/05 06:33:21;;;;;;;10.13;4.10;;;;;;;-144.30;81.56;86450.19;5072556;28;20195;-57
2024/01/05 06:35:48;;;;;;;4.97;3.37;;;;;;;-144.30;81.03;86416.41;5072307;28;20695;-57
2024/01/05 06:38:15;;;;;;;5.03;3.63;;;;;;;-144.30;81.05;86450.19;5072537;28;20202;-55
2024/01/05 06:40:42;;;;;;;4.23;3.50;;;;;;;-144.30;81.16;86386.56;5072724;28;20200;-56
2024/01/05 06:43:11;;;;;;;3.73;3.43;;;;;;;-144.30;80.87;86394.53;5067447;28;20212;-55
2024/01/05 06:45:38;;;;;;;5.50;3.40;;;;;;;-144.30;81.27;86501.91;5061933;28;20239;-58
2024/01/05 06:48:06;;;;;;;5.60;3.60;;;;;;;-144.30;81.84;86454.19;5064211;28;20255;-58
2024/01/05 06:50:33;;;;;;;9.20;3.50;;;;;;;-144.30;82.11;86396.50;5056615;28;20637;-58
2024/01/05 06:53:00;;;;;;;6.27;3.70;;;;;;;-144.30;81.65;86203.63;5071659;28;20203;-59
2024/01/05 06:55:27;;;;;;;4.27;3.63;;;;;;;-144.30;81.91;86482.03;5072012;28;20204;-58
2024/01/05 06:57:54;;;;;;;9.90;3.70;;;;;;;-144.30;81.93;86426.34;5058881;28;20731;-57
2024/01/05 07:00:22;;;;;;;4.30;3.13;;;;;;;-144.30;81.68;86414.41;5071951;28;20644;-55
2024/01/05 07:02:49;;;;;;;5.63;3.43;;;;;;;-144.30;81.08;86460.16;5053344;28;20197;-57
2024/01/05 07:05:16;;;;;;;4.53;3.90;;;;;;;-144.30;80.50;86438.28;5051896;28;20207;-58
2024/01/05 07:07:43;;;;;;;4.40;3.93;;;;;;;-144.30;80.43;86418.38;5051897;28;20287;-58
2024/01/05 07:10:10;;;;;;;6.10;3.53;;;;;;;-144.30;80.49;86424.34;5052050;28;20752;-58
2024/01/05 07:12:38;;;;;;;5.93;3.70;;;;;;;-144.30;80.48;86434.28;5051133;28;20196;-57
2024/01/05 07:15:06;;;;;;;9.97;3.83;;;;;;;-144.30;79.71;86422.38;5051761;28;20240;-59
2024/01/05 07:17:34;;;;;;;6.57;3.90;;;;;;;-144.30;79.63;86402.47;5051576;28;20204;-56
2024/01/05 07:20:01;;;;;;;5.33;3.37;;;;;;;-144.30;78.91;86384.59;5051554;28;20296;-58
2024/01/05 07:22:28;;;;;;;5.27;3.40;;;;;;;-144.30;78.36;86386.56;5051898;28;20197;-59
2024/01/05 07:24:56;;;;;;;3.33;3.03;;;;;;;-144.30;77.82;86390.53;5051696;28;20200;-58
2024/01/05 07:27:21;;;;;;;8.93;3.33;;;;;;;-144.30;78.07;86384.59;5051062;28;20192;-58
2024/01/05 07:29:48;;;;;;;8.80;4.10;;;;;;;-144.30;78.00;86324.94;5068720;28;20286;-58
2024/01/05 07:32:15;;;;;;;7.27;4.10;;;;;;;-144.30;77.21;86346.81;5088460;28;20203;-58
2024/01/05 07:34:44;;;;;;;7.13;4.63;;;;;;;-144.30;76.85;86322.94;5091166;28;20195;-59
2024/01/05 07:37:11;;;;;;;4.83;4.00;;;;;;;-144.30;76.93;86396.50;5091710;28;20278;-59
2024/01/05 07:39:39;;;;;;;9.17;4.00;;;;;;;-144.30;76.46;86316.97;5091618;28;20572;-59
2024/01/05 07:42:06;;;;;;;6.10;4.40;;;;;;;-144.30;76.15;86352.75;5091475;28;20210;-58
2024/01/05 07:44:33;;;;;;;11.57;5.07;;;;;;;-144.30;76.08;86291.13;5091497;28;20203;-57
2024/01/05 07:46:59;;;;;;;5.10;4.13;;;;;;;-144.30;75.90;86314.97;5091697;28;20206;-58
2024/01/05 07:49:26;;;;;;;8.30;4.17;;;;;;;-144.30;75.73;86328.91;5091568;28;20197;-58
2024/01/05 07:51:55;;;;;;;7.77;4.30;;;;;;;-144.30;75.06;86346.81;5091359;28;20284;-57
2024/01/05 07:54:21;;;;;;;6.63;3.40;;;;;;;-144.30;74.64;86324.94;5091562;28;20353;-59
2024/01/05 07:56:48;;;;;;;4.80;3.90;;;;;;;-144.30;74.44;86336.84;5091189;28;20583;-59
2024/01/05 07:59:16;;;;;;;4.70;3.67;;;;;;;-144.30;74.71;86163.88;5091360;28;20222;-59
2024/01/05 08:01:43;;;;;;;6.83;3.40;;;;;;;-144.30;73.78;86301.06;5091196;28;20680;-59
2024/01/05 08:04:10;;;;;;;6.43;3.53;;;;;;;-144.30;73.68;86293.09;5091262;28;20199;-59
2024/01/05 08:06:37;;;;;;;4.77;3.43;;;;;;;-144.30;73.41;86279.19;5091255;28;20199;-57
2024/01/05 08:09:05;;;;;;;5.43;4.07;;;;;;;-144.30;72.98;86213.56;5091043;28;20199;-57
2024/01/05 08:11:32;;;;;;;7.20;3.97;;;;;;;-144.30;72.91;86257.31;5090995;28;20583;-58
2024/01/05 08:13:59;;;;;;;7.57;3.70;;;;;;;-144.30;72.03;86289.13;5090936;28;20519;-58
2024/01/05 08:16:26;;;;;;;6.97;3.00;;;;;;;-144.30;71.52;86138.00;5091164;28;20449;-55
2024/01/05 08:18:53;;;;;;;5.97;5.37;;;;;;;-144.30;71.56;86267.25;5091127;28;20583;-55
2024/01/05 08:21:20;;;;;;;6.10;4.37;;;;;;;-144.30;71.17;86203.63;5090702;28;20217;-55
2024/01/05 08:23:47;;;;;;;27.57;14.60;;;;;;;-144.30;71.79;86267.25;5090729;28;20760;-58
2024/01/05 08:26:19;;;;;;;27.30;17.40;;;;;;;-144.30;71.15;86227.50;5090684;28;20202;-54
2024/01/05 08:28:47;;;;;;;24.53;13.50;;;;;;;-144.30;70.79;86207.59;5090701;28;20266;-55
2024/01/05 08:31:14;;;;;;;11.93;6.97;;;;;;;-144.30;70.33;86205.63;5084035;28;20738;-54
2024/01/05 08:33:41;;;;;;;14.40;6.17;;;;;;;-144.30;70.36;86215.56;5070410;28;20665;-58
2024/01/05 08:36:08;;;;;;;6.77;4.57;;;;;;;-144.30;70.14;86211.59;5070115;28;20282;-58
2024/01/05 08:38:35;;;;;;;6.17;4.40;;;;;;;-144.30;69.66;86181.75;5070263;28;20211;-57
2024/01/05 08:41:02;;;;;;;5.63;3.70;;;;;;;-144.30;69.22;86177.78;5070444;28;20192;-55
2024/01/05 08:43:30;;;;;;;9.00;3.30;;;;;;;-144.30;69.20;86132.06;5070487;28;20235;-56
2024/01/05 08:45:58;;;;;;;7.20;3.83;;;;;;;-144.30;69.26;86161.88;5070118;28;20200;-56
2024/01/05 08:48:25;;;;;;;4.10;3.67;;;;;;;-144.30;69.27;86175.78;5070372;28;20199;-58
2024/01/05 08:50:52;;;;;;;8.67;2.90;;;;;;;-144.30;68.59;86163.88;5070129;28;20314;-58
2024/01/05 08:53:21;;;;;;;5.37;2.63;;;;;;;-144.30;68.46;86124.09;5069679;28;20202;-58
2024/01/05 08:55:48;;;;;;;4.30;2.40;;;;;;;-144.30;68.69;86106.19;5070319;28;20568;-58
2024/01/05 08:58:15;;;;;;;2.90;2.20;;;;;;;-144.30;68.23;86138.00;5070171;28;20194;-58
2024/01/05 09:00:43;;;;;;;3.57;2.20;;;;;;;-144.30;68.14;86100.25;5069943;28;20246;-58
2024/01/05 09:03:10;;;;;;;10.43;2.67;;;;;;;-144.30;63.35;86088.31;5069748;28;20202;-58
2024/01/05 09:05:37;;;;;;;9.27;2.73;;;;;;;-144.30;63.05;86094.28;5069866;28;20282;-58
2024/01/05 09:08:04;;;;;;;3.90;2.03;;;;;;;-144.30;62.32;86118.13;5069984;28;20207;-58
2024/01/05 09:10:33;;;;;;;3.10;2.00;;;;;;;-144.30;61.35;86094.28;5070695;28;20231;-56
2024/01/05 09:13:00;;;;;;;3.83;1.93;;;;;;;-144.30;61.27;86006.78;5069831;28;20556;-56
2024/01/05 09:15:27;;;;;;;6.53;2.50;;;;;;;-144.30;60.84;86040.59;5069731;28;20200;-58
2024/01/05 09:17:55;;;;;;;4.47;2.53;;;;;;;-144.30;60.87;86050.53;5069639;28;20295;-57
2024/01/05 09:20:22;;;;;;;12.37;3.50;;;;;;;-144.30;61.00;86060.47;5069722;28;20677;-58
2024/01/05 09:22:49;;;;;;;5.87;3.40;;;;;;;-144.30;60.58;86046.56;5069788;28;20198;-56
2024/01/05 09:25:16;;;;;;;3.13;1.93;;;;;;;-144.30;61.13;86000.81;5069845;28;20200;-56
2024/01/05 09:27:43;;;;;;;6.20;2.70;;;;;;;-144.30;60.87;86056.50;5069520;28;20531;-55
2024/01/05 09:30:10;;;;;;;3.70;2.73;;;;;;;-144.30;60.75;86008.78;5069632;28;20206;-56
2024/01/05 09:32:37;;;;;;;7.50;1.93;;;;;;;-144.30;60.41;86036.59;5069329;28;20238;-56
2024/01/05 09:35:08;;;;;;;5.10;2.63;;;;;;;-144.30;59.62;86032.63;5069861;28;20202;-55
2024/01/05 09:37:35;;;;;;;5.70;2.70;;;;;;;-144.30;59.91;86004.78;5070199;28;20211;-56
2024/01/05 09:40:02;;;;;;;3.67;2.83;;;;;;;-144.30;59.45;86008.78;5070035;28;20318;-56
2024/01/05 09:42:29;;;;;;;5.07;2.43;;;;;;;-144.30;58.88;86008.78;5069636;28;20191;-58
2024/01/05 09:44:56;;;;;;;4.80;2.40;;;;;;;-144.30;58.71;85994.84;5069319;28;20233;-58
2024/01/05 09:47:23;;;;;;;5.93;1.97;;;;;;;-144.30;58.30;85972.97;5069470;28;20655;-58
2024/01/05 09:49:51;;;;;;;3.27;1.97;;;;;;;-144.30;57.81;85957.06;5069910;28;20574;-61
2024/01/05 09:52:21;;;;;;;2.47;2.10;;;;;;;-144.30;57.49;85901.41;5069396;28;20223;-58
2024/01/05 09:54:49;;;;;;;5.83;2.33;;;;;;;-144.30;57.24;85899.41;5063235;28;20659;-58
2024/01/05 09:57:17;;;;;;;5.60;2.93;;;;;;;-144.30;57.14;85929.25;5060134;28;20212;-57
2024/01/05 09:59:47;;;;;;;5.40;2.93;;;;;;;-144.30;57.95;85957.06;5051451;28;20690;-57
2024/01/05 10:02:20;;;;;;;8.27;3.40;;;;;;;-144.30;57.74;85935.22;5063706;28;20224;-57
2024/01/05 10:04:47;;;;;;;6.20;3.50;;;;;;;-144.30;57.82;85935.22;5068916;28;20204;-57
2024/01/05 10:07:15;;;;;;;9.73;3.50;;;;;;;-144.30;58.18;85951.13;5062328;28;20627;-57
2024/01/05 10:09:51;;;;;;;4.87;3.73;;;;;;;-144.30;57.96;85929.25;5063148;28;20338;-59
2024/01/05 10:12:19;;;;;;;6.77;3.30;;;;;;;-144.30;57.32;85889.47;5057169;28;20220;-57
2024/01/05 10:14:47;;;;;;;4.93;2.70;;;;;;;-144.30;56.94;85891.47;5048993;28;20293;-57
2024/01/05 10:17:15;;;;;;;6.33;2.60;;;;;;;-144.30;56.04;85901.41;5049037;28;20197;-58
2024/01/05 10:19:42;;;;;;;10.47;2.47;;;;;;;-144.30;56.60;85907.38;5049226;28;20204;-58
2024/01/05 10:22:11;;;;;;;5.73;2.53;;;;;;;-144.30;56.51;85887.50;5049183;28;20201;-58
2024/01/05 10:24:38;;;;;;;8.30;4.60;;;;;;;-144.30;56.46;85905.38;5072749;28;20203;-56
2024/01/05 10:27:08;;;;;;;5.30;3.20;;;;;;;-144.30;56.54;85871.59;5089040;28;20211;-59
2024/01/05 10:29:37;;;;;;;6.97;3.57;;;;;;;-144.30;56.70;86338.84;5089481;28;20187;-57
2024/01/05 10:32:12;;;;;;;4.20;2.43;;;;;;;-144.30;56.39;85802.00;5089203;28;20691;-59
2024/01/05 10:34:40;;;;;;;5.60;5.07;;;;;;;-144.30;56.87;85857.66;5089321;28;20191;-58
2024/01/05 10:37:07;;;;;;;8.20;3.27;;;;;;;-144.30;57.65;85897.44;5089360;28;20195;-58
2024/01/05 10:39:35;;;;;;;6.03;2.80;;;;;;;-144.30;58.40;85863.63;5092064;28;20190;-58
2024/01/05 10:42:23;;;;;;;7.13;3.20;;;;;;;-144.30;58.16;85841.75;5092609;28;20191;-58
2024/01/05 10:44:52;;;;;;;6.60;3.30;;;;;;;-144.30;58.65;85883.50;5092601;28;20204;-58
2024/01/05 10:47:21;;;;;;;4.23;2.80;;;;;;;-144.30;59.15;85873.56;5092999;28;20199;-59
2024/01/05 10:49:50;;;;;;;6.03;2.53;;;;;;;-144.30;59.28;85871.59;5089628;28;20195;-57
2024/01/05 10:52:18;;;;;;;6.20;2.50;;;;;;;-144.30;61.31;85798.03;5072664;28;20234;-56
2024/01/05 10:54:47;;;;;;;2.40;2.20;;;;;;;-144.30;62.15;85758.25;5072123;28;20210;-56
2024/01/05 10:57:15;;;;;;;4.63;2.77;;;;;;;-144.30;60.21;85861.63;5072681;28;20612;-58
2024/01/05 10:59:48;;;;;;;4.03;3.13;;;;;;;-144.30;60.04;85853.69;5072310;28;20211;-58
2024/01/05 11:02:22;;;;;;;62.23;35.73;;;;;;;-144.30;59.46;85853.69;5072002;28;20228;-59
2024/01/05 11:04:57;;;;;;;4.00;3.60;;;;;;;-144.30;59.95;85843.75;5072078;28;20222;-57
2024/01/05 11:07:25;;;;;;;2.30;2.10;;;;;;;-144.30;58.58;85794.03;5072397;28;20603;-57
2024/01/05 11:10:02;;;;;;;2.17;1.87;;;;;;;-144.30;58.58;85835.78;5072067;28;20205;-57
2024/01/05 11:12:45;;;;;;;5.20;1.90;;;;;;;-144.30;59.06;85819.88;5071777;28;20223;-56
2024/01/05 11:15:30;;;;;;;8.17;2.60;;;;;;;-144.30;59.35;86221.53;5071822;28;20218;-57
2024/01/05 11:18:34;;;;;;;1.80;1.70;;;;;;;-144.30;58.28;85738.38;5071961;28;20432;-57